The Amigo — V7ZC7 — position and weather

sailwx.info

Track history (hours):
 
Tides and Currents Weather Stations Pressure Air Temp Water Temp Dewpoint Dewpoint Depression Visibility Wind Speed Wind Dir Waves Ship Positions

The Amigo

Last reported at 2018-Jul-21 18:23 UTC. Time now 2018-Jul-23 00:28 UTC.
Position N 40°28' W 073°51'.

Length 134 m; draft 5.7 m.

Type: Ship. MMSI: 538004791.

Date/timePositionNaut miles runAvg speedWind from/ knotsBaromVisibWave heightAir tempDewpointWater temp
2018-Jul-21 18:23N 40°28' W 073°51'4 9.5
2018-Jul-21 17:58N 40°30' W 073°56'510.3
2018-Jul-21 17:29N 40°32' W 074°01'611.8
2018-Jul-21 17:00N 40°38' W 074°03'510.1
2018-Jul-21 16:30N 40°42' W 074°00'5 8.9
2018-Jul-21 15:59N 40°46' W 073°57'3 0.1
2018-Jul-20 20:55N 40°48' W 073°54'3 5.1
2018-Jul-20 20:21N 40°46' W 073°57'2 5.8
2018-Jul-20 20:00N 40°44' W 073°58'3 6.8
2018-Jul-20 19:30N 40°42' W 074°01'5 9.8
2018-Jul-20 19:00N 40°37' W 074°03'4 8.6
2018-Jul-20 18:30N 40°33' W 074°02'612.3
2018-Jul-20 18:00N 40°29' W 073°55'7411.6
2018-Jul-20 11:38N 40°31' W 072°17'213.4
2018-Jul-20 11:30N 40°31' W 072°15'1013.4
2018-Jul-20 10:46N 40°32' W 072°02'1013.4
2018-Jul-20 10:00N 40°32' W 071°49'713.5
2018-Jul-20 09:30N 40°32' W 071°40'913.4
2018-Jul-20 08:48N 40°32' W 071°28'413.4
2018-Jul-20 08:29N 40°32' W 071°22'613.5
2018-Jul-20 08:00N 40°32' W 071°14'713.5
2018-Jul-20 07:29N 40°32' W 071°04'713.2
2018-Jul-20 07:00N 40°33' W 070°56'612.9
2018-Jul-20 06:31N 40°33' W 070°48'612.7
2018-Jul-20 06:00N 40°33' W 070°39'612.9
2018-Jul-20 05:30N 40°33' W 070°31'812.9
2018-Jul-20 04:51N 40°33' W 070°20'2113.7
2018-Jul-20 03:18N 40°34' W 069°52'513.8
2018-Jul-20 02:56N 40°34' W 069°45'1913.8
2018-Jul-20 01:35N 40°34' W 069°20'113.6
2018-Jul-20 01:29N 40°34' W 069°19'7010.9
2018-Jul-19 19:03N 41°34' W 068°30'1 9.5
2018-Jul-19 18:58N 41°35' W 068°29'5 9.6
2018-Jul-19 18:26N 41°40' W 068°29'410.2
2018-Jul-19 18:01N 41°44' W 068°29'610.4
2018-Jul-19 17:28N 41°50' W 068°29'610.5
2018-Jul-19 16:53N 41°56' W 068°29'10112.1
2018-Jul-19 08:33N 43°37' W 068°38'313.4
2018-Jul-19 08:18N 43°40' W 068°38'413.4
2018-Jul-19 08:00N 43°44' W 068°38'713.5
2018-Jul-19 07:30N 43°51' W 068°39'510.3
2018-Jul-19 07:00N 43°55' W 068°42'612.4
2018-Jul-19 06:30N 43°56' W 068°51'5 9.7
2018-Jul-19 06:00N 43°58' W 068°57'611.3
2018-Jul-19 05:30N 44°03' W 069°01'612.5
2018-Jul-19 05:00N 44°09' W 069°01'612.4
2018-Jul-19 04:30N 44°16' W 068°59'612.5
2018-Jul-19 04:00N 44°21' W 068°56'1 0.1
2018-Jul-18 12:57N 44°21' W 068°56'511.9
2018-Jul-18 12:31N 44°16' W 068°59'611.5
2018-Jul-18 12:00N 44°10' W 069°00'611.8
2018-Jul-18 11:30N 44°04' W 069°00'22 8.3
2018-Jul-18 08:55N 43°58' W 068°32'410.8
2018-Jul-18 08:30N 43°59' W 068°26'611.3
2018-Jul-18 08:00N 44°01' W 068°18'611.6
2018-Jul-18 07:31N 44°02' W 068°10'611.1
2018-Jul-18 07:00N 44°04' W 068°03'511.0
2018-Jul-18 06:31N 44°05' W 067°56'610.9
2018-Jul-18 05:58N 44°06' W 067°48'  
2018-Jul-15 05:06N 43°10' W 068°45'111.1
2018-Jul-15 04:58N 43°10' W 068°46'511.3
2018-Jul-15 04:30N 43°07' W 068°52'611.3
2018-Jul-15 03:59N 43°03' W 068°59'611.4
2018-Jul-15 03:30N 43°00' W 069°05'611.6
2018-Jul-15 03:00N 42°57' W 069°11'611.6
2018-Jul-15 02:30N 42°53' W 069°17'511.0
2018-Jul-15 02:00N 42°50' W 069°23'510.9
2018-Jul-15 01:30N 42°47' W 069°29'510.9
2018-Jul-15 01:00N 42°44' W 069°36'511.0
2018-Jul-15 00:30N 42°41' W 069°42'510.9
2018-Jul-15 00:00N 42°37' W 069°48'6 9.7
2018-Jul-14 23:21N 42°33' W 069°54'3 9.7
2018-Jul-14 23:00N 42°31' W 069°58'5 9.5
2018-Jul-14 22:30N 42°29' W 070°03'5 9.3
2018-Jul-14 22:00N 42°26' W 070°09'5 9.7
2018-Jul-14 21:30N 42°23' W 070°14'4 9.0
2018-Jul-14 21:00N 42°19' W 070°17'5 9.8
2018-Jul-14 20:30N 42°14' W 070°18'612.7
2018-Jul-14 20:00N 42°08' W 070°20'713.9
2018-Jul-14 19:30N 42°02' W 070°22'714.0
2018-Jul-14 19:00N 41°55' W 070°25'713.5
2018-Jul-14 18:30N 41°48' W 070°27'8 6.7
2018-Jul-14 17:21N 41°45' W 070°36'2 6.2
2018-Jul-14 17:00N 41°43' W 070°39'1111.0
2018-Jul-14 15:59N 41°33' W 070°45'611.8
2018-Jul-14 15:29N 41°30' W 070°52'2311.7
2018-Jul-14 13:30N 41°26' W 071°22'710.6
2018-Jul-14 12:53N 41°32' W 071°20'511.7
2018-Jul-14 12:30N 41°37' W 071°18'612.5
2018-Jul-14 12:00N 41°43' W 071°20'510.1
2018-Jul-14 11:30N 41°47' W 071°23'1 0.1
2018-Jul-13 18:30N 41°48' W 071°24'4 8.4
2018-Jul-13 18:00N 41°44' W 071°22'611.9
2018-Jul-13 17:30N 41°39' W 071°19'612.1
2018-Jul-13 17:00N 41°33' W 071°20'31 8.5
2018-Jul-13 13:19N 41°42' W 070°40'3 9.7
2018-Jul-13 13:00N 41°44' W 070°37'5 6.9
2018-Jul-13 12:13N 41°46' W 070°30'2 9.4
2018-Jul-13 12:00N 41°48' W 070°28'3 5.1
2018-Jul-13 11:28N 41°50' W 070°27'2 4.6
2018-Jul-13 11:00N 41°52' W 070°28'3 5.9
2018-Jul-13 10:30N 41°55' W 070°28'3 6.1
2018-Jul-13 10:00N 41°58' W 070°29'3 5.8
2018-Jul-13 09:30N 42°01' W 070°29'3 5.7
2018-Jul-13 09:00N 42°04' W 070°30'3 6.4
2018-Jul-13 08:30N 42°07' W 070°30'3 6.6
2018-Jul-13 08:00N 42°10' W 070°31'3 5.8
2018-Jul-13 07:30N 42°13' W 070°31'3 6.1
2018-Jul-13 06:58N 42°17' W 070°31'3 5.9
2018-Jul-13 06:30N 42°19' W 070°30'3 5.5
2018-Jul-13 06:00N 42°22' W 070°30'3 5.8
2018-Jul-13 05:30N 42°25' W 070°30'3 6.1
2018-Jul-13 05:00N 42°28' W 070°30'3 6.2
2018-Jul-13 04:30N 42°31' W 070°29'3 6.0
2018-Jul-13 04:00N 42°34' W 070°29'3 6.0
2018-Jul-13 03:30N 42°37' W 070°29'3 6.1
2018-Jul-13 03:00N 42°40' W 070°29'3 6.2
2018-Jul-13 02:30N 42°43' W 070°30'3 6.1
2018-Jul-13 02:00N 42°46' W 070°32'3 6.0
2018-Jul-13 01:30N 42°48' W 070°33'3 6.4
2018-Jul-13 01:00N 42°51' W 070°35'4 9.0
2018-Jul-13 00:30N 42°55' W 070°38'5 9.0
2018-Jul-13 00:00N 42°59' W 070°40'5 9.1
2018-Jul-12 23:30N 43°04' W 070°42'3 6.3
2018-Jul-12 22:59N 43°06' W 070°46'0 0.0
2018-Jul-11 21:56N 43°06' W 070°46'2 5.5
2018-Jul-11 21:30N 43°05' W 070°43'4 8.2
2018-Jul-11 21:00N 43°02' W 070°39'4 9.0
2018-Jul-11 20:30N 43°02' W 070°33'5 9.4
2018-Jul-11 20:00N 43°02' W 070°27'5 9.4
2018-Jul-11 19:30N 43°03' W 070°20'5 9.3
2018-Jul-11 19:00N 43°03' W 070°14'4 8.7
2018-Jul-11 18:30N 43°04' W 070°08'  
Track history (hours):
 
Tides and Currents Weather Stations Pressure Air Temp Water Temp Dewpoint Dewpoint Depression Visibility Wind Speed Wind Dir Waves Ship Positions

The Amigo

Last reported at 2018-Jul-21 18:23 UTC. Time now 2018-Jul-23 00:28 UTC.
Position N 40°28' W 073°51'.

Length 134 m; draft 5.7 m.

Type: Ship. MMSI: 538004791.

Date/timePositionNaut miles runAvg speedWind from/ knotsBaromVisibWave heightAir tempDewpointWater temp
2018-Jul-21 18:23N 40°28' W 073°51'4 9.5
2018-Jul-21 17:58N 40°30' W 073°56'510.3
2018-Jul-21 17:29N 40°32' W 074°01'611.8
2018-Jul-21 17:00N 40°38' W 074°03'510.1
2018-Jul-21 16:30N 40°42' W 074°00'5 8.9
2018-Jul-21 15:59N 40°46' W 073°57'3 0.1
2018-Jul-20 20:55N 40°48' W 073°54'3 5.1
2018-Jul-20 20:21N 40°46' W 073°57'2 5.8
2018-Jul-20 20:00N 40°44' W 073°58'3 6.8
2018-Jul-20 19:30N 40°42' W 074°01'5 9.8
2018-Jul-20 19:00N 40°37' W 074°03'4 8.6
2018-Jul-20 18:30N 40°33' W 074°02'612.3
2018-Jul-20 18:00N 40°29' W 073°55'7411.6
2018-Jul-20 11:38N 40°31' W 072°17'213.4
2018-Jul-20 11:30N 40°31' W 072°15'1013.4
2018-Jul-20 10:46N 40°32' W 072°02'1013.4
2018-Jul-20 10:00N 40°32' W 071°49'713.5
2018-Jul-20 09:30N 40°32' W 071°40'913.4
2018-Jul-20 08:48N 40°32' W 071°28'413.4
2018-Jul-20 08:29N 40°32' W 071°22'613.5
2018-Jul-20 08:00N 40°32' W 071°14'713.5
2018-Jul-20 07:29N 40°32' W 071°04'713.2
2018-Jul-20 07:00N 40°33' W 070°56'612.9
2018-Jul-20 06:31N 40°33' W 070°48'612.7
2018-Jul-20 06:00N 40°33' W 070°39'612.9
2018-Jul-20 05:30N 40°33' W 070°31'812.9
2018-Jul-20 04:51N 40°33' W 070°20'2113.7
2018-Jul-20 03:18N 40°34' W 069°52'513.8
2018-Jul-20 02:56N 40°34' W 069°45'1913.8
2018-Jul-20 01:35N 40°34' W 069°20'113.6
2018-Jul-20 01:29N 40°34' W 069°19'7010.9
2018-Jul-19 19:03N 41°34' W 068°30'1 9.5
2018-Jul-19 18:58N 41°35' W 068°29'5 9.6
2018-Jul-19 18:26N 41°40' W 068°29'410.2
2018-Jul-19 18:01N 41°44' W 068°29'610.4
2018-Jul-19 17:28N 41°50' W 068°29'610.5
2018-Jul-19 16:53N 41°56' W 068°29'10112.1
2018-Jul-19 08:33N 43°37' W 068°38'313.4
2018-Jul-19 08:18N 43°40' W 068°38'413.4
2018-Jul-19 08:00N 43°44' W 068°38'713.5
2018-Jul-19 07:30N 43°51' W 068°39'510.3
2018-Jul-19 07:00N 43°55' W 068°42'612.4
2018-Jul-19 06:30N 43°56' W 068°51'5 9.7
2018-Jul-19 06:00N 43°58' W 068°57'611.3
2018-Jul-19 05:30N 44°03' W 069°01'612.5
2018-Jul-19 05:00N 44°09' W 069°01'612.4
2018-Jul-19 04:30N 44°16' W 068°59'612.5
2018-Jul-19 04:00N 44°21' W 068°56'1 0.1
2018-Jul-18 12:57N 44°21' W 068°56'511.9
2018-Jul-18 12:31N 44°16' W 068°59'611.5
2018-Jul-18 12:00N 44°10' W 069°00'611.8
2018-Jul-18 11:30N 44°04' W 069°00'22 8.3
2018-Jul-18 08:55N 43°58' W 068°32'410.8
2018-Jul-18 08:30N 43°59' W 068°26'611.3
2018-Jul-18 08:00N 44°01' W 068°18'611.6
2018-Jul-18 07:31N 44°02' W 068°10'611.1
2018-Jul-18 07:00N 44°04' W 068°03'511.0
2018-Jul-18 06:31N 44°05' W 067°56'610.9
2018-Jul-18 05:58N 44°06' W 067°48'  
2018-Jul-15 05:06N 43°10' W 068°45'111.1
2018-Jul-15 04:58N 43°10' W 068°46'511.3
2018-Jul-15 04:30N 43°07' W 068°52'611.3
2018-Jul-15 03:59N 43°03' W 068°59'611.4
2018-Jul-15 03:30N 43°00' W 069°05'611.6
2018-Jul-15 03:00N 42°57' W 069°11'611.6
2018-Jul-15 02:30N 42°53' W 069°17'511.0
2018-Jul-15 02:00N 42°50' W 069°23'510.9
2018-Jul-15 01:30N 42°47' W 069°29'510.9
2018-Jul-15 01:00N 42°44' W 069°36'511.0
2018-Jul-15 00:30N 42°41' W 069°42'510.9
2018-Jul-15 00:00N 42°37' W 069°48'6 9.7
2018-Jul-14 23:21N 42°33' W 069°54'3 9.7
2018-Jul-14 23:00N 42°31' W 069°58'5 9.5
2018-Jul-14 22:30N 42°29' W 070°03'5 9.3
2018-Jul-14 22:00N 42°26' W 070°09'5 9.7
2018-Jul-14 21:30N 42°23' W 070°14'4 9.0
2018-Jul-14 21:00N 42°19' W 070°17'5 9.8
2018-Jul-14 20:30N 42°14' W 070°18'612.7
2018-Jul-14 20:00N 42°08' W 070°20'713.9
2018-Jul-14 19:30N 42°02' W 070°22'714.0
2018-Jul-14 19:00N 41°55' W 070°25'713.5
2018-Jul-14 18:30N 41°48' W 070°27'8 6.7
2018-Jul-14 17:21N 41°45' W 070°36'2 6.2
2018-Jul-14 17:00N 41°43' W 070°39'1111.0
2018-Jul-14 15:59N 41°33' W 070°45'611.8
2018-Jul-14 15:29N 41°30' W 070°52'2311.7
2018-Jul-14 13:30N 41°26' W 071°22'710.6
2018-Jul-14 12:53N 41°32' W 071°20'511.7
2018-Jul-14 12:30N 41°37' W 071°18'612.5
2018-Jul-14 12:00N 41°43' W 071°20'510.1
2018-Jul-14 11:30N 41°47' W 071°23'1 0.1
2018-Jul-13 18:30N 41°48' W 071°24'4 8.4
2018-Jul-13 18:00N 41°44' W 071°22'611.9
2018-Jul-13 17:30N 41°39' W 071°19'612.1
2018-Jul-13 17:00N 41°33' W 071°20'31 8.5
2018-Jul-13 13:19N 41°42' W 070°40'3 9.7
2018-Jul-13 13:00N 41°44' W 070°37'5 6.9
2018-Jul-13 12:13N 41°46' W 070°30'2 9.4
2018-Jul-13 12:00N 41°48' W 070°28'3 5.1
2018-Jul-13 11:28N 41°50' W 070°27'2 4.6
2018-Jul-13 11:00N 41°52' W 070°28'3 5.9
2018-Jul-13 10:30N 41°55' W 070°28'3 6.1
2018-Jul-13 10:00N 41°58' W 070°29'3 5.8
2018-Jul-13 09:30N 42°01' W 070°29'3 5.7
2018-Jul-13 09:00N 42°04' W 070°30'3 6.4
2018-Jul-13 08:30N 42°07' W 070°30'3 6.6
2018-Jul-13 08:00N 42°10' W 070°31'3 5.8
2018-Jul-13 07:30N 42°13' W 070°31'3 6.1
2018-Jul-13 06:58N 42°17' W 070°31'3 5.9
2018-Jul-13 06:30N 42°19' W 070°30'3 5.5
2018-Jul-13 06:00N 42°22' W 070°30'3 5.8
2018-Jul-13 05:30N 42°25' W 070°30'3 6.1
2018-Jul-13 05:00N 42°28' W 070°30'3 6.2
2018-Jul-13 04:30N 42°31' W 070°29'3 6.0
2018-Jul-13 04:00N 42°34' W 070°29'3 6.0
2018-Jul-13 03:30N 42°37' W 070°29'3 6.1
2018-Jul-13 03:00N 42°40' W 070°29'3 6.2
2018-Jul-13 02:30N 42°43' W 070°30'3 6.1
2018-Jul-13 02:00N 42°46' W 070°32'3 6.0
2018-Jul-13 01:30N 42°48' W 070°33'3 6.4
2018-Jul-13 01:00N 42°51' W 070°35'4 9.0
2018-Jul-13 00:30N 42°55' W 070°38'5 9.0
2018-Jul-13 00:00N 42°59' W 070°40'5 9.1
2018-Jul-12 23:30N 43°04' W 070°42'3 6.3
2018-Jul-12 22:59N 43°06' W 070°46'0 0.0
2018-Jul-11 21:56N 43°06' W 070°46'2 5.5
2018-Jul-11 21:30N 43°05' W 070°43'4 8.2
2018-Jul-11 21:00N 43°02' W 070°39'4 9.0
2018-Jul-11 20:30N 43°02' W 070°33'5 9.4
2018-Jul-11 20:00N 43°02' W 070°27'5 9.4
2018-Jul-11 19:30N 43°03' W 070°20'5 9.3
2018-Jul-11 19:00N 43°03' W 070°14'4 8.7
2018-Jul-11 18:30N 43°04' W 070°08'  

Dump ship's entire track history